sensor_id;sensor_type;location;lat;lon;timestamp;pressure;altitude;pressure_sealevel;temperature;humidity
47220;BME280;32961;51.936;4.788;2024-01-06T00:00:00;100362.31;;;4.96;100.00
47220;BME280;32961;51.936;4.788;2024-01-06T00:02:28;100368.53;;;4.96;100.00
47220;BME280;32961;51.936;4.788;2024-01-06T00:04:56;100363.16;;;4.96;100.00
47220;BME280;32961;51.936;4.788;2024-01-06T00:07:24;100365.84;;;4.85;100.00
47220;BME280;32961;51.936;4.788;2024-01-06T00:09:52;100365.72;;;4.87;100.00
47220;BME280;32961;51.936;4.788;2024-01-06T00:12:20;100375.91;;;4.94;100.00
47220;BME280;32961;51.936;4.788;2024-01-06T00:14:48;100379.31;;;4.96;100.00
47220;BME280;32961;51.936;4.788;2024-01-06T00:17:17;100381.03;;;4.97;100.00
47220;BME280;32961;51.936;4.788;2024-01-06T00:19:45;100374.41;;;4.90;100.00
47220;BME280;32961;51.936;4.788;2024-01-06T00:22:17;100374.66;;;4.87;100.00
47220;BME280;32961;51.936;4.788;2024-01-06T00:24:46;100378.78;;;4.80;100.00
47220;BME280;32961;51.936;4.788;2024-01-06T00:27:14;100378.03;;;4.66;100.00
47220;BME280;32961;51.936;4.788;2024-01-06T00:29:43;100383.19;;;4.70;100.00
47220;BME280;32961;51.936;4.788;2024-01-06T00:32:10;100390.00;;;4.62;100.00
47220;BME280;32961;51.936;4.788;2024-01-06T00:34:40;100390.47;;;4.56;100.00
47220;BME280;32961;51.936;4.788;2024-01-06T00:37:08;100401.59;;;4.52;100.00
47220;BME280;32961;51.936;4.788;2024-01-06T00:39:35;100391.66;;;4.52;100.00
47220;BME280;32961;51.936;4.788;2024-01-06T00:42:04;100396.19;;;4.52;100.00
47220;BME280;32961;51.936;4.788;2024-01-06T00:44:32;100398.66;;;4.55;100.00
47220;BME280;32961;51.936;4.788;2024-01-06T00:47:00;100399.75;;;4.52;100.00
47220;BME280;32961;51.936;4.788;2024-01-06T00:49:27;100410.84;;;4.47;100.00
47220;BME280;32961;51.936;4.788;2024-01-06T00:51:57;100401.59;;;4.52;100.00
47220;BME280;32961;51.936;4.788;2024-01-06T00:54:25;100410.22;;;4.44;100.00
47220;BME280;32961;51.936;4.788;2024-01-06T00:56:53;100409.41;;;4.55;100.00
47220;BME280;32961;51.936;4.788;2024-01-06T00:59:24;100408.09;;;4.60;100.00
47220;BME280;32961;51.936;4.788;2024-01-06T01:01:51;100404.78;;;4.57;100.00
47220;BME280;32961;51.936;4.788;2024-01-06T01:04:20;100414.16;;;4.51;100.00
47220;BME280;32961;51.936;4.788;2024-01-06T01:06:48;100428.72;;;4.48;100.00
47220;BME280;32961;51.936;4.788;2024-01-06T01:09:17;100428.31;;;4.42;100.00
47220;BME280;32961;51.936;4.788;2024-01-06T01:11:45;100430.56;;;4.48;100.00
47220;BME280;32961;51.936;4.788;2024-01-06T01:14:13;100436.78;;;4.48;100.00
47220;BME280;32961;51.936;4.788;2024-01-06T01:16:41;100435.69;;;4.51;100.00
47220;BME280;32961;51.936;4.788;2024-01-06T01:19:09;100443.28;;;4.57;100.00
47220;BME280;32961;51.936;4.788;2024-01-06T01:21:36;100445.91;;;4.59;100.00
47220;BME280;32961;51.936;4.788;2024-01-06T01:24:05;100455.72;;;4.47;100.00
47220;BME280;32961;51.936;4.788;2024-01-06T01:26:34;100461.31;;;4.44;100.00
47220;BME280;32961;51.936;4.788;2024-01-06T01:29:02;100455.78;;;4.34;100.00
47220;BME280;32961;51.936;4.788;2024-01-06T01:31:30;100459.34;;;4.34;100.00
47220;BME280;32961;51.936;4.788;2024-01-06T01:33:58;100462.47;;;4.28;100.00
47220;BME280;32961;51.936;4.788;2024-01-06T01:36:26;100458.19;;;4.26;100.00
47220;BME280;32961;51.936;4.788;2024-01-06T01:38:53;100471.63;;;4.26;100.00
47220;BME280;32961;51.936;4.788;2024-01-06T01:41:21;100466.34;;;4.24;100.00
47220;BME280;32961;51.936;4.788;2024-01-06T01:43:50;100474.66;;;4.21;100.00
47220;BME280;32961;51.936;4.788;2024-01-06T01:46:25;100475.81;;;4.30;100.00
47220;BME280;32961;51.936;4.788;2024-01-06T01:48:53;100482.41;;;4.26;100.00
47220;BME280;32961;51.936;4.788;2024-01-06T01:51:22;100478.38;;;4.31;100.00
47220;BME280;32961;51.936;4.788;2024-01-06T01:53:50;100487.31;;;4.32;100.00
47220;BME280;32961;51.936;4.788;2024-01-06T01:56:19;100489.44;;;4.40;100.00
47220;BME280;32961;51.936;4.788;2024-01-06T01:58:47;100495.00;;;4.49;100.00
47220;BME280;32961;51.936;4.788;2024-01-06T02:01:17;100494.03;;;4.50;100.00
47220;BME280;32961;51.936;4.788;2024-01-06T02:03:45;100498.56;;;4.50;100.00
47220;BME280;32961;51.936;4.788;2024-01-06T02:06:13;100498.13;;;4.56;100.00
47220;BME280;32961;51.936;4.788;2024-01-06T02:08:41;100503.50;;;4.56;100.00
47220;BME280;32961;51.936;4.788;2024-01-06T02:11:09;100500.16;;;4.53;100.00
47220;BME280;32961;51.936;4.788;2024-01-06T02:13:37;100504.91;;;4.49;100.00
47220;BME280;32961;51.936;4.788;2024-01-06T02:16:05;100508.13;;;4.54;100.00
47220;BME280;32961;51.936;4.788;2024-01-06T02:18:35;100511.38;;;4.46;100.00
47220;BME280;32961;51.936;4.788;2024-01-06T02:21:03;100514.28;;;4.43;100.00
47220;BME280;32961;51.936;4.788;2024-01-06T02:23:35;100517.50;;;4.48;100.00
47220;BME280;32961;51.936;4.788;2024-01-06T02:26:03;100516.47;;;4.38;100.00
47220;BME280;32961;51.936;4.788;2024-01-06T02:28:31;100523.78;;;4.36;100.00
47220;BME280;32961;51.936;4.788;2024-01-06T02:30:59;100525.88;;;4.20;100.00
47220;BME280;32961;51.936;4.788;2024-01-06T02:33:27;100534.03;;;4.18;100.00
47220;BME280;32961;51.936;4.788;2024-01-06T02:35:55;100535.03;;;4.17;100.00
47220;BME280;32961;51.936;4.788;2024-01-06T02:38:23;100542.78;;;4.09;100.00
47220;BME280;32961;51.936;4.788;2024-01-06T02:40:52;100542.09;;;4.18;100.00
47220;BME280;32961;51.936;4.788;2024-01-06T02:43:20;100547.94;;;4.12;100.00
47220;BME280;32961;51.936;4.788;2024-01-06T02:45:49;100548.56;;;4.15;100.00
47220;BME280;32961;51.936;4.788;2024-01-06T02:48:17;100556.19;;;4.22;100.00
47220;BME280;32961;51.936;4.788;2024-01-06T02:50:47;100560.09;;;4.17;100.00
47220;BME280;32961;51.936;4.788;2024-01-06T02:53:15;100557.84;;;4.11;100.00
47220;BME280;32961;51.936;4.788;2024-01-06T02:55:43;100558.16;;;4.07;100.00
47220;BME280;32961;51.936;4.788;2024-01-06T02:58:12;100566.09;;;4.08;100.00
47220;BME280;32961;51.936;4.788;2024-01-06T03:00:40;100564.28;;;3.96;100.00
47220;BME280;32961;51.936;4.788;2024-01-06T03:03:08;100575.38;;;4.04;100.00
47220;BME280;32961;51.936;4.788;2024-01-06T03:05:36;100584.00;;;3.96;100.00
47220;BME280;32961;51.936;4.788;2024-01-06T03:08:05;100585.50;;;3.88;100.00
47220;BME280;32961;51.936;4.788;2024-01-06T03:10:33;100593.22;;;3.92;100.00
47220;BME280;32961;51.936;4.788;2024-01-06T03:13:03;100585.16;;;3.92;100.00
47220;BME280;32961;51.936;4.788;2024-01-06T03:15:32;100593.22;;;3.92;100.00
47220;BME280;32961;51.936;4.788;2024-01-06T03:18:00;100596.56;;;3.96;100.00
47220;BME280;32961;51.936;4.788;2024-01-06T03:20:28;100598.16;;;3.98;100.00
47220;BME280;32961;51.936;4.788;2024-01-06T03:22:56;100593.97;;;3.94;100.00
47220;BME280;32961;51.936;4.788;2024-01-06T03:25:23;100599.44;;;3.80;100.00
47220;BME280;32961;51.936;4.788;2024-01-06T03:27:51;100598.38;;;3.82;100.00
47220;BME280;32961;51.936;4.788;2024-01-06T03:30:19;100605.34;;;3.85;100.00
47220;BME280;32961;51.936;4.788;2024-01-06T03:32:48;100605.72;;;3.80;100.00
47220;BME280;32961;51.936;4.788;2024-01-06T03:35:16;100611.72;;;3.84;100.00
47220;BME280;32961;51.936;4.788;2024-01-06T03:37:44;100621.09;;;3.91;100.00
47220;BME280;32961;51.936;4.788;2024-01-06T03:40:12;100620.53;;;3.86;100.00
47220;BME280;32961;51.936;4.788;2024-01-06T03:42:40;100620.94;;;3.80;100.00
47220;BME280;32961;51.936;4.788;2024-01-06T03:45:08;100632.81;;;3.90;100.00
47220;BME280;32961;51.936;4.788;2024-01-06T03:47:36;100633.44;;;3.81;100.00
47220;BME280;32961;51.936;4.788;2024-01-06T03:50:06;100631.63;;;3.81;100.00
47220;BME280;32961;51.936;4.788;2024-01-06T03:52:34;100631.50;;;3.83;100.00
47220;BME280;32961;51.936;4.788;2024-01-06T03:55:02;100636.00;;;3.82;100.00
47220;BME280;32961;51.936;4.788;2024-01-06T03:57:30;100638.16;;;3.77;100.00
47220;BME280;32961;51.936;4.788;2024-01-06T03:59:58;100640.25;;;3.59;100.00
47220;BME280;32961;51.936;4.788;2024-01-06T04:02:26;100637.28;;;3.64;100.00
47220;BME280;32961;51.936;4.788;2024-01-06T04:04:53;100645.03;;;3.68;100.00
47220;BME280;32961;51.936;4.788;2024-01-06T04:07:23;100642.88;;;3.74;100.00
47220;BME280;32961;51.936;4.788;2024-01-06T04:09:50;100644.28;;;3.79;100.00
47220;BME280;32961;51.936;4.788;2024-01-06T04:12:18;100636.44;;;3.76;100.00
47220;BME280;32961;51.936;4.788;2024-01-06T04:14:46;100653.44;;;3.77;100.00
47220;BME280;32961;51.936;4.788;2024-01-06T04:17:14;100658.81;;;3.77;100.00
47220;BME280;32961;51.936;4.788;2024-01-06T04:19:42;100655.81;;;3.81;100.00
47220;BME280;32961;51.936;4.788;2024-01-06T04:22:10;100665.50;;;3.84;100.00
47220;BME280;32961;51.936;4.788;2024-01-06T04:24:39;100658.81;;;3.90;100.00
47220;BME280;32961;51.936;4.788;2024-01-06T04:27:07;100662.91;;;3.95;100.00
47220;BME280;32961;51.936;4.788;2024-01-06T04:29:36;100666.88;;;3.90;100.00
47220;BME280;32961;51.936;4.788;2024-01-06T04:32:04;100674.50;;;3.96;100.00
47220;BME280;32961;51.936;4.788;2024-01-06T04:34:33;100673.66;;;3.95;100.00
47220;BME280;32961;51.936;4.788;2024-01-06T04:37:02;100668.28;;;3.95;100.00
47220;BME280;32961;51.936;4.788;2024-01-06T04:39:29;100673.97;;;3.91;100.00
47220;BME280;32961;51.936;4.788;2024-01-06T04:42:01;100668.47;;;3.79;100.00
47220;BME280;32961;51.936;4.788;2024-01-06T04:44:29;100675.47;;;3.82;100.00
47220;BME280;32961;51.936;4.788;2024-01-06T04:46:57;100674.94;;;3.77;100.00
47220;BME280;32961;51.936;4.788;2024-01-06T04:49:27;100677.09;;;3.72;100.00
47220;BME280;32961;51.936;4.788;2024-01-06T04:51:55;100675.78;;;3.64;100.00
47220;BME280;32961;51.936;4.788;2024-01-06T04:54:23;100684.25;;;3.58;100.00
47220;BME280;32961;51.936;4.788;2024-01-06T04:56:51;100684.84;;;3.49;100.00
47220;BME280;32961;51.936;4.788;2024-01-06T04:59:20;100684.31;;;3.57;100.00
47220;BME280;32961;51.936;4.788;2024-01-06T05:01:48;100686.72;;;3.61;100.00
47220;BME280;32961;51.936;4.788;2024-01-06T05:04:17;100693.47;;;3.54;100.00
47220;BME280;32961;51.936;4.788;2024-01-06T05:06:45;100694.41;;;3.53;100.00
47220;BME280;32961;51.936;4.788;2024-01-06T05:09:13;100697.88;;;3.55;100.00
47220;BME280;32961;51.936;4.788;2024-01-06T05:11:43;100700.00;;;3.50;100.00
47220;BME280;32961;51.936;4.788;2024-01-06T05:14:11;100708.44;;;3.58;100.00
47220;BME280;32961;51.936;4.788;2024-01-06T05:16:44;100707.00;;;3.52;100.00
47220;BME280;32961;51.936;4.788;2024-01-06T05:19:14;100716.25;;;3.61;100.00
47220;BME280;32961;51.936;4.788;2024-01-06T05:21:47;100707.78;;;3.67;100.00
47220;BME280;32961;51.936;4.788;2024-01-06T05:24:15;100715.19;;;3.64;100.00
47220;BME280;32961;51.936;4.788;2024-01-06T05:26:43;100720.28;;;3.68;100.00
47220;BME280;32961;51.936;4.788;2024-01-06T05:29:11;100732.94;;;3.66;100.00
47220;BME280;32961;51.936;4.788;2024-01-06T05:31:40;100719.84;;;3.62;100.00
47220;BME280;32961;51.936;4.788;2024-01-06T05:34:11;100726.16;;;3.61;100.00
47220;BME280;32961;51.936;4.788;2024-01-06T05:36:40;100725.09;;;3.63;100.00
47220;BME280;32961;51.936;4.788;2024-01-06T05:39:08;100730.34;;;3.52;100.00
47220;BME280;32961;51.936;4.788;2024-01-06T05:41:40;100727.53;;;3.53;100.00
47220;BME280;32961;51.936;4.788;2024-01-06T05:44:08;100731.84;;;3.56;100.00
47220;BME280;32961;51.936;4.788;2024-01-06T05:46:35;100739.34;;;3.51;100.00
47220;BME280;32961;51.936;4.788;2024-01-06T05:49:05;100747.28;;;3.52;100.00
47220;BME280;32961;51.936;4.788;2024-01-06T05:51:33;100746.63;;;3.49;100.00
47220;BME280;32961;51.936;4.788;2024-01-06T05:54:00;100751.25;;;3.47;100.00
47220;BME280;32961;51.936;4.788;2024-01-06T05:56:29;100755.13;;;3.56;100.00
47220;BME280;32961;51.936;4.788;2024-01-06T05:58:57;100760.50;;;3.56;100.00
47220;BME280;32961;51.936;4.788;2024-01-06T06:01:25;100763.19;;;3.56;100.00
47220;BME280;32961;51.936;4.788;2024-01-06T06:03:52;100763.00;;;3.59;100.00
47220;BME280;32961;51.936;4.788;2024-01-06T06:06:22;100763.97;;;3.58;100.00
47220;BME280;32961;51.936;4.788;2024-01-06T06:08:50;100770.88;;;3.62;100.00
47220;BME280;32961;51.936;4.788;2024-01-06T06:11:17;100772.91;;;3.58;100.00
47220;BME280;32961;51.936;4.788;2024-01-06T06:13:45;100780.38;;;3.53;100.00
47220;BME280;32961;51.936;4.788;2024-01-06T06:16:13;100784.50;;;3.59;100.00
47220;BME280;32961;51.936;4.788;2024-01-06T06:18:41;100788.16;;;3.58;100.00
47220;BME280;32961;51.936;4.788;2024-01-06T06:21:09;100796.44;;;3.55;100.00
47220;BME280;32961;51.936;4.788;2024-01-06T06:23:39;100802.66;;;3.55;100.00
47220;BME280;32961;51.936;4.788;2024-01-06T06:26:07;100804.56;;;3.53;100.00
47220;BME280;32961;51.936;4.788;2024-01-06T06:28:35;100804.63;;;3.39;100.00
47220;BME280;32961;51.936;4.788;2024-01-06T06:31:03;100807.88;;;3.44;100.00
47220;BME280;32961;51.936;4.788;2024-01-06T06:33:31;100805.28;;;3.42;100.00
47220;BME280;32961;51.936;4.788;2024-01-06T06:36:00;100811.41;;;3.44;100.00
47220;BME280;32961;51.936;4.788;2024-01-06T06:38:29;100814.38;;;3.40;100.00
47220;BME280;32961;51.936;4.788;2024-01-06T06:40:58;100826.13;;;3.39;100.00
47220;BME280;32961;51.936;4.788;2024-01-06T06:43:26;100843.84;;;3.27;100.00
47220;BME280;32961;51.936;4.788;2024-01-06T06:45:54;100841.47;;;3.22;100.00
47220;BME280;32961;51.936;4.788;2024-01-06T06:48:23;100844.72;;;3.27;100.00
47220;BME280;32961;51.936;4.788;2024-01-06T06:50:51;100845.38;;;3.31;100.00
47220;BME280;32961;51.936;4.788;2024-01-06T06:53:20;100849.03;;;3.30;100.00
47220;BME280;32961;51.936;4.788;2024-01-06T06:55:48;100850.19;;;3.26;100.00
47220;BME280;32961;51.936;4.788;2024-01-06T06:58:17;100853.38;;;3.32;100.00
47220;BME280;32961;51.936;4.788;2024-01-06T07:00:45;100853.63;;;3.42;100.00
47220;BME280;32961;51.936;4.788;2024-01-06T07:03:13;100859.69;;;3.46;100.00
47220;BME280;32961;51.936;4.788;2024-01-06T07:05:42;100863.22;;;3.46;100.00
47220;BME280;32961;51.936;4.788;2024-01-06T07:08:10;100866.69;;;3.34;100.00
47220;BME280;32961;51.936;4.788;2024-01-06T07:10:40;100875.31;;;3.25;100.00
47220;BME280;32961;51.936;4.788;2024-01-06T07:13:08;100882.41;;;3.26;100.00
47220;BME280;32961;51.936;4.788;2024-01-06T07:15:37;100885.59;;;3.32;100.00
47220;BME280;32961;51.936;4.788;2024-01-06T07:18:05;100887.88;;;3.24;100.00
47220;BME280;32961;51.936;4.788;2024-01-06T07:20:33;100892.03;;;3.15;100.00
47220;BME280;32961;51.936;4.788;2024-01-06T07:23:01;100906.50;;;3.13;100.00
47220;BME280;32961;51.936;4.788;2024-01-06T07:25:29;100915.28;;;3.00;100.00
47220;BME280;32961;51.936;4.788;2024-01-06T07:27:58;100915.00;;;3.05;100.00
47220;BME280;32961;51.936;4.788;2024-01-06T07:30:25;100923.28;;;3.16;100.00
47220;BME280;32961;51.936;4.788;2024-01-06T07:32:55;100922.22;;;3.19;100.00
47220;BME280;32961;51.936;4.788;2024-01-06T07:35:23;100922.41;;;3.16;100.00
47220;BME280;32961;51.936;4.788;2024-01-06T07:37:50;100923.19;;;3.18;100.00
47220;BME280;32961;51.936;4.788;2024-01-06T07:40:19;100936.50;;;3.19;100.00
47220;BME280;32961;51.936;4.788;2024-01-06T07:42:47;100929.69;;;3.14;100.00
47220;BME280;32961;51.936;4.788;2024-01-06T07:45:15;100930.44;;;3.01;100.00
47220;BME280;32961;51.936;4.788;2024-01-06T07:47:43;100931.22;;;3.03;100.00
47220;BME280;32961;51.936;4.788;2024-01-06T07:50:12;100933.91;;;3.03;100.00
47220;BME280;32961;51.936;4.788;2024-01-06T07:52:39;100945.69;;;3.01;100.00
47220;BME280;32961;51.936;4.788;2024-01-06T07:55:08;100947.22;;;3.05;100.00
47220;BME280;32961;51.936;4.788;2024-01-06T07:57:35;100955.19;;;3.07;100.00
47220;BME280;32961;51.936;4.788;2024-01-06T08:00:04;100960.84;;;3.02;100.00
47220;BME280;32961;51.936;4.788;2024-01-06T08:02:32;100958.16;;;3.02;100.00
47220;BME280;32961;51.936;4.788;2024-01-06T08:05:01;100967.84;;;3.04;100.00
47220;BME280;32961;51.936;4.788;2024-01-06T08:07:31;100970.63;;;3.03;100.00
47220;BME280;32961;51.936;4.788;2024-01-06T08:10:02;100966.00;;;3.05;100.00
47220;BME280;32961;51.936;4.788;2024-01-06T08:12:36;100970.16;;;3.11;100.00
47220;BME280;32961;51.936;4.788;2024-01-06T08:15:05;100977.00;;;3.16;100.00
47220;BME280;32961;51.936;4.788;2024-01-06T08:17:34;100988.75;;;3.14;100.00
47220;BME280;32961;51.936;4.788;2024-01-06T08:20:02;100985.03;;;3.16;100.00
47220;BME280;32961;51.936;4.788;2024-01-06T08:22:32;100987.34;;;3.23;100.00
47220;BME280;32961;51.936;4.788;2024-01-06T08:25:06;100985.31;;;3.12;100.00
47220;BME280;32961;51.936;4.788;2024-01-06T08:27:34;100991.00;;;3.21;100.00
47220;BME280;32961;51.936;4.788;2024-01-06T08:30:03;100997.41;;;3.19;100.00
47220;BME280;32961;51.936;4.788;2024-01-06T08:32:33;100989.16;;;3.22;100.00
47220;BME280;32961;51.936;4.788;2024-01-06T08:35:01;101002.19;;;3.14;100.00
47220;BME280;32961;51.936;4.788;2024-01-06T08:37:30;101005.38;;;3.20;100.00
47220;BME280;32961;51.936;4.788;2024-01-06T08:39:59;100997.41;;;3.19;100.00
47220;BME280;32961;51.936;4.788;2024-01-06T08:42:29;101010.06;;;3.17;100.00
47220;BME280;32961;51.936;4.788;2024-01-06T08:44:57;101005.63;;;3.16;100.00
47220;BME280;32961;51.936;4.788;2024-01-06T08:47:28;101004.69;;;3.17;100.00
47220;BME280;32961;51.936;4.788;2024-01-06T08:49:56;101011.78;;;3.18;100.00
47220;BME280;32961;51.936;4.788;2024-01-06T08:52:24;101014.38;;;3.19;100.00
47220;BME280;32961;51.936;4.788;2024-01-06T08:54:51;101014.22;;;3.23;100.00
47220;BME280;32961;51.936;4.788;2024-01-06T08:57:21;101015.75;;;3.27;100.00
47220;BME280;32961;51.936;4.788;2024-01-06T08:59:49;101029.44;;;3.22;100.00
47220;BME280;32961;51.936;4.788;2024-01-06T09:02:19;101033.47;;;3.29;100.00
47220;BME280;32961;51.936;4.788;2024-01-06T09:04:47;101041.38;;;3.32;100.00
47220;BME280;32961;51.936;4.788;2024-01-06T09:07:15;101048.28;;;3.36;100.00
47220;BME280;32961;51.936;4.788;2024-01-06T09:09:44;101046.44;;;3.37;100.00
47220;BME280;32961;51.936;4.788;2024-01-06T09:12:11;101052.28;;;3.29;100.00
47220;BME280;32961;51.936;4.788;2024-01-06T09:14:46;101049.50;;;3.31;100.00
47220;BME280;32961;51.936;4.788;2024-01-06T09:17:17;101066.22;;;3.36;100.00
47220;BME280;32961;51.936;4.788;2024-01-06T09:19:44;101064.94;;;3.27;100.00
47220;BME280;32961;51.936;4.788;2024-01-06T09:22:11;101068.66;;;3.25;100.00
47220;BME280;32961;51.936;4.788;2024-01-06T09:24:40;101070.13;;;3.30;100.00
47220;BME280;32961;51.936;4.788;2024-01-06T09:27:08;101076.47;;;3.29;100.00
47220;BME280;32961;51.936;4.788;2024-01-06T09:29:36;101084.34;;;3.32;100.00
47220;BME280;32961;51.936;4.788;2024-01-06T09:32:05;101082.63;;;3.31;100.00
47220;BME280;32961;51.936;4.788;2024-01-06T09:34:33;101085.31;;;3.31;100.00
47220;BME280;32961;51.936;4.788;2024-01-06T09:37:31;101092.94;;;3.23;100.00
47220;BME280;32961;51.936;4.788;2024-01-06T09:39:59;101100.03;;;3.24;100.00
47220;BME280;32961;51.936;4.788;2024-01-06T09:42:27;101102.47;;;3.29;100.00
47220;BME280;32961;51.936;4.788;2024-01-06T09:44:55;101103.22;;;3.31;100.00
47220;BME280;32961;51.936;4.788;2024-01-06T09:47:26;101108.59;;;3.31;100.00
47220;BME280;32961;51.936;4.788;2024-01-06T09:49:57;101119.44;;;3.29;100.00
47220;BME280;32961;51.936;4.788;2024-01-06T09:52:29;101116.94;;;3.26;100.00
47220;BME280;32961;51.936;4.788;2024-01-06T09:55:00;101123.75;;;3.32;100.00
47220;BME280;32961;51.936;4.788;2024-01-06T09:57:28;101113.97;;;3.31;100.00
47220;BME280;32961;51.936;4.788;2024-01-06T09:59:57;101127.31;;;3.32;100.00
47220;BME280;32961;51.936;4.788;2024-01-06T10:02:27;101122.97;;;3.30;100.00
47220;BME280;32961;51.936;4.788;2024-01-06T10:04:58;101124.81;;;3.29;100.00
47220;BME280;32961;51.936;4.788;2024-01-06T10:07:26;101130.38;;;3.26;100.00
47220;BME280;32961;51.936;4.788;2024-01-06T10:09:54;101133.91;;;3.27;100.00
47220;BME280;32961;51.936;4.788;2024-01-06T10:12:23;101135.81;;;3.25;100.00
47220;BME280;32961;51.936;4.788;2024-01-06T10:14:51;101135.81;;;3.25;100.00
47220;BME280;32961;51.936;4.788;2024-01-06T10:17:19;101140.22;;;3.26;100.00
47220;BME280;32961;51.936;4.788;2024-01-06T10:19:48;101149.75;;;3.31;100.00
47220;BME280;32961;51.936;4.788;2024-01-06T10:22:17;101148.13;;;3.29;100.00
47220;BME280;32961;51.936;4.788;2024-01-06T10:24:45;101157.81;;;3.31;100.00
47220;BME280;32961;51.936;4.788;2024-01-06T10:27:13;101153.97;;;3.35;100.00
47220;BME280;32961;51.936;4.788;2024-01-06T10:29:41;101156.41;;;3.40;100.00
47220;BME280;32961;51.936;4.788;2024-01-06T10:32:10;101152.25;;;3.34;100.00
47220;BME280;32961;51.936;4.788;2024-01-06T10:34:38;101156.66;;;3.35;100.00
47220;BME280;32961;51.936;4.788;2024-01-06T10:37:08;101166.28;;;3.40;100.00
47220;BME280;32961;51.936;4.788;2024-01-06T10:39:36;101163.59;;;3.40;100.00
47220;BME280;32961;51.936;4.788;2024-01-06T10:42:06;101163.16;;;3.47;100.00
47220;BME280;32961;51.936;4.788;2024-01-06T10:44:34;101167.97;;;3.57;100.00
47220;BME280;32961;51.936;4.788;2024-01-06T10:47:06;101171.59;;;3.56;100.00
47220;BME280;32961;51.936;4.788;2024-01-06T10:49:34;101177.50;;;3.62;100.00
47220;BME280;32961;51.936;4.788;2024-01-06T10:52:04;101186.19;;;3.51;100.00
47220;BME280;32961;51.936;4.788;2024-01-06T10:54:34;101183.75;;;3.47;100.00
47220;BME280;32961;51.936;4.788;2024-01-06T10:57:04;101187.59;;;3.43;100.00
47220;BME280;32961;51.936;4.788;2024-01-06T10:59:34;101187.97;;;3.36;100.00
47220;BME280;32961;51.936;4.788;2024-01-06T11:02:03;101190.38;;;3.41;100.00
47220;BME280;32961;51.936;4.788;2024-01-06T11:04:32;101193.31;;;3.36;100.00
47220;BME280;32961;51.936;4.788;2024-01-06T11:07:01;101184.31;;;3.37;100.00
47220;BME280;32961;51.936;4.788;2024-01-06T11:09:32;101191.13;;;3.43;100.00
47220;BME280;32961;51.936;4.788;2024-01-06T11:12:04;101196.97;;;3.35;100.00
47220;BME280;32961;51.936;4.788;2024-01-06T11:14:37;101195.56;;;3.44;100.00
47220;BME280;32961;51.936;4.788;2024-01-06T11:17:05;101197.28;;;3.45;100.00
47220;BME280;32961;51.936;4.788;2024-01-06T11:19:43;101208.03;;;3.45;100.00
47220;BME280;32961;51.936;4.788;2024-01-06T11:22:19;101202.50;;;3.48;100.00
47220;BME280;32961;51.936;4.788;2024-01-06T11:24:48;101200.88;;;3.46;100.00
47220;BME280;32961;51.936;4.788;2024-01-06T11:27:22;101199.28;;;3.42;100.00
47220;BME280;32961;51.936;4.788;2024-01-06T11:29:53;101205.09;;;3.50;100.00
47220;BME280;32961;51.936;4.788;2024-01-06T11:32:28;101198.66;;;3.52;100.00
47220;BME280;32961;51.936;4.788;2024-01-06T11:35:05;101201.44;;;3.51;100.00
47220;BME280;32961;51.936;4.788;2024-01-06T11:37:36;101198.66;;;3.52;100.00
47220;BME280;32961;51.936;4.788;2024-01-06T11:40:09;101199.09;;;3.61;100.00
47220;BME280;32961;51.936;4.788;2024-01-06T11:42:42;101208.38;;;3.55;100.00
47220;BME280;32961;51.936;4.788;2024-01-06T11:45:10;101213.94;;;3.52;100.00
47220;BME280;32961;51.936;4.788;2024-01-06T11:47:39;101208.63;;;3.50;100.00
47220;BME280;32961;51.936;4.788;2024-01-06T11:50:08;101211.59;;;3.46;100.00
47220;BME280;32961;51.936;4.788;2024-01-06T11:52:37;101217.03;;;3.44;100.00
47220;BME280;32961;51.936;4.788;2024-01-06T11:55:05;101209.09;;;3.43;100.00
47220;BME280;32961;51.936;4.788;2024-01-06T11:57:34;101206.56;;;3.40;100.00
47220;BME280;32961;51.936;4.788;2024-01-06T12:00:05;101209.78;;;3.46;100.00
47220;BME280;32961;51.936;4.788;2024-01-06T12:02:33;101206.75;;;3.36;100.00
47220;BME280;32961;51.936;4.788;2024-01-06T12:05:02;101217.31;;;3.40;100.00
47220;BME280;32961;51.936;4.788;2024-01-06T12:07:30;101208.13;;;3.44;100.00
47220;BME280;32961;51.936;4.788;2024-01-06T12:10:02;101210.13;;;3.40;100.00
47220;BME280;32961;51.936;4.788;2024-01-06T12:12:30;101206.16;;;3.31;100.00
47220;BME280;32961;51.936;4.788;2024-01-06T12:14:58;101216.66;;;3.36;100.00
47220;BME280;32961;51.936;4.788;2024-01-06T12:17:29;101213.78;;;3.39;100.00
47220;BME280;32961;51.936;4.788;2024-01-06T12:19:58;101206.31;;;3.44;100.00
47220;BME280;32961;51.936;4.788;2024-01-06T12:22:27;101208.13;;;3.44;100.00
47220;BME280;32961;51.936;4.788;2024-01-06T12:24:54;101213.16;;;3.50;100.00
47220;BME280;32961;51.936;4.788;2024-01-06T12:27:24;101213.94;;;3.52;100.00
47220;BME280;32961;51.936;4.788;2024-01-06T12:29:52;101212.72;;;3.42;100.00
47220;BME280;32961;51.936;4.788;2024-01-06T12:32:20;101218.00;;;3.43;100.00
47220;BME280;32961;51.936;4.788;2024-01-06T12:34:49;101213.06;;;3.35;100.00
47220;BME280;32961;51.936;4.788;2024-01-06T12:37:17;101220.97;;;3.39;100.00
47220;BME280;32961;51.936;4.788;2024-01-06T12:39:47;101218.34;;;3.37;100.00
47220;BME280;32961;51.936;4.788;2024-01-06T12:42:15;101226.16;;;3.42;100.00
47220;BME280;32961;51.936;4.788;2024-01-06T12:44:44;101226.00;;;3.45;100.00
47220;BME280;32961;51.936;4.788;2024-01-06T12:47:12;101221.81;;;3.39;100.00
47220;BME280;32961;51.936;4.788;2024-01-06T12:49:40;101225.47;;;3.38;100.00
47220;BME280;32961;51.936;4.788;2024-01-06T12:52:09;101222.16;;;3.49;100.00
47220;BME280;32961;51.936;4.788;2024-01-06T12:54:38;101229.63;;;3.44;100.00
47220;BME280;32961;51.936;4.788;2024-01-06T12:57:10;101233.44;;;3.40;100.00